createdAt,value
2023-08-23T00:01:23.429Z,68.10
2023-08-23T00:04:09.616Z,67.40
2023-08-23T00:06:55.208Z,66.80
2023-08-23T00:09:40.906Z,66.90
2023-08-23T00:12:26.224Z,67.30
2023-08-23T00:15:11.730Z,68.00
2023-08-23T00:17:57.397Z,68.60
2023-08-23T00:20:43.389Z,68.90
2023-08-23T00:23:28.901Z,69.40
2023-08-23T00:26:15.285Z,69.30
2023-08-23T00:29:00.962Z,68.90
2023-08-23T00:31:46.752Z,68.80
2023-08-23T00:34:32.539Z,68.80
2023-08-23T00:37:18.086Z,68.30
2023-08-23T00:40:05.330Z,70.20
2023-08-23T00:42:51.428Z,69.40
2023-08-23T00:45:39.184Z,69.50
2023-08-23T00:48:25.310Z,68.00
2023-08-23T00:51:12.989Z,68.40
2023-08-23T00:53:59.559Z,68.00
2023-08-23T00:56:45.211Z,68.00
2023-08-23T00:59:32.895Z,67.80
2023-08-23T01:02:19.068Z,68.20
2023-08-23T01:05:05.299Z,67.90
2023-08-23T01:08:29.837Z,68.30
2023-08-23T01:11:32.511Z,68.10
2023-08-23T01:15:07.105Z,70.30
2023-08-23T01:17:54.104Z,88.90
2023-08-23T01:20:40.032Z,70.10
2023-08-23T01:23:29.066Z,71.20
2023-08-23T01:26:14.954Z,69.30
2023-08-23T01:29:00.330Z,69.10
2023-08-23T01:31:49.610Z,69.20
2023-08-23T01:34:45.389Z,68.60
2023-08-23T01:37:31.356Z,67.80
2023-08-23T01:40:17.949Z,69.20
2023-08-23T01:43:03.803Z,69.20
2023-08-23T01:45:50.277Z,69.20
2023-08-23T01:48:35.747Z,68.20
2023-08-23T01:51:21.193Z,68.30
2023-08-23T01:54:06.776Z,68.40
2023-08-23T01:56:52.315Z,68.30
2023-08-23T01:59:38.464Z,68.70
2023-08-23T02:02:24.383Z,67.90
2023-08-23T02:05:09.887Z,68.20
2023-08-23T02:07:55.595Z,68.60
2023-08-23T02:10:41.099Z,68.00
2023-08-23T02:13:26.845Z,67.00
2023-08-23T02:16:12.813Z,67.60
2023-08-23T02:18:58.762Z,68.00
2023-08-23T02:21:44.233Z,67.70
2023-08-23T02:24:29.659Z,68.00
2023-08-23T02:27:15.412Z,67.80
2023-08-23T02:30:01.091Z,68.00
2023-08-23T02:32:46.689Z,68.40
2023-08-23T02:35:34.837Z,68.80
2023-08-23T02:38:20.500Z,68.50
2023-08-23T02:41:06.099Z,68.30
2023-08-23T02:43:51.764Z,68.00
2023-08-23T02:46:37.134Z,68.30
2023-08-23T02:49:23.160Z,68.40
2023-08-23T02:52:08.695Z,70.50
2023-08-23T02:54:54.261Z,69.40
2023-08-23T02:57:39.986Z,69.60
2023-08-23T03:00:25.577Z,68.30
2023-08-23T03:03:11.259Z,67.30
2023-08-23T03:05:58.797Z,67.80
2023-08-23T03:08:44.551Z,67.80
2023-08-23T03:11:30.137Z,67.80
2023-08-23T03:14:15.768Z,67.20
2023-08-23T03:17:01.073Z,67.80
2023-08-23T03:19:46.717Z,67.40
2023-08-23T03:22:32.123Z,67.10
2023-08-23T03:25:17.645Z,67.60
2023-08-23T03:28:03.198Z,68.30
2023-08-23T03:30:48.981Z,67.80
2023-08-23T03:33:34.763Z,67.70
2023-08-23T03:36:20.524Z,67.70
2023-08-23T03:39:06.033Z,67.40
2023-08-23T03:41:51.412Z,69.30
2023-08-23T03:44:36.972Z,68.40
2023-08-23T03:47:22.844Z,68.40
2023-08-23T03:50:09.525Z,67.90
2023-08-23T03:52:55.320Z,68.20
2023-08-23T03:55:40.862Z,67.80
2023-08-23T03:58:26.562Z,68.40
2023-08-23T04:01:12.137Z,68.40
2023-08-23T04:03:57.794Z,69.00
2023-08-23T04:06:43.688Z,69.00
2023-08-23T04:09:29.396Z,68.50
2023-08-23T04:12:15.461Z,68.40
2023-08-23T04:15:01.804Z,68.40
2023-08-23T04:17:47.444Z,68.80
2023-08-23T04:20:33.615Z,69.40
2023-08-23T04:23:19.594Z,68.40
2023-08-23T04:26:05.073Z,69.30
2023-08-23T04:28:51.277Z,69.40
2023-08-23T04:31:37.151Z,69.00
2023-08-23T04:34:22.793Z,68.80
2023-08-23T04:37:08.987Z,68.80
2023-08-23T04:39:54.830Z,69.00
2023-08-23T04:42:40.652Z,69.40
2023-08-23T04:45:26.297Z,68.60
2023-08-23T04:48:11.823Z,68.50
2023-08-23T04:51:00.644Z,67.80
2023-08-23T04:53:46.243Z,69.70
2023-08-23T04:56:31.800Z,68.40
2023-08-23T04:59:17.517Z,68.80
2023-08-23T05:02:03.062Z,68.00
2023-08-23T05:04:51.946Z,67.90
2023-08-23T05:07:37.980Z,68.10
2023-08-23T05:10:23.669Z,66.90
2023-08-23T05:13:09.733Z,67.70
2023-08-23T05:15:59.213Z,67.30
2023-08-23T05:18:45.042Z,66.60
2023-08-23T05:21:30.867Z,66.90
2023-08-23T05:24:16.956Z,66.90
2023-08-23T05:27:03.080Z,66.10
2023-08-23T05:29:49.288Z,67.00
2023-08-23T05:32:35.812Z,66.90
2023-08-23T05:35:21.489Z,66.50
2023-08-23T05:38:07.385Z,67.00
2023-08-23T05:40:53.107Z,66.20
2023-08-23T05:43:38.787Z,66.20
2023-08-23T05:46:24.697Z,65.80
2023-08-23T05:49:10.432Z,64.80
2023-08-23T05:51:56.085Z,64.20
2023-08-23T05:54:41.743Z,63.80
2023-08-23T05:57:27.581Z,64.90
2023-08-23T06:00:14.321Z,64.30
2023-08-23T06:02:59.828Z,64.10
2023-08-23T06:05:45.924Z,64.00
2023-08-23T06:08:32.063Z,64.00
2023-08-23T06:11:17.534Z,63.80
2023-08-23T06:14:25.263Z,63.80
2023-08-23T06:17:11.151Z,65.80
2023-08-23T06:19:56.607Z,64.30
2023-08-23T06:22:42.113Z,64.80
2023-08-23T06:25:27.872Z,64.20
2023-08-23T06:28:13.410Z,63.60
2023-08-23T06:30:59.874Z,63.60
2023-08-23T06:33:45.669Z,63.70
2023-08-23T06:36:31.143Z,63.30
2023-08-23T06:39:32.604Z,63.40
2023-08-23T06:42:19.424Z,63.00
2023-08-23T06:45:07.052Z,62.60
2023-08-23T06:47:52.806Z,62.70
2023-08-23T06:50:38.812Z,62.50
2023-08-23T06:53:24.561Z,62.10
2023-08-23T06:56:12.260Z,62.10
2023-08-23T06:58:57.956Z,62.30
2023-08-23T07:01:43.580Z,62.00
2023-08-23T07:04:29.611Z,61.60
2023-08-23T07:07:15.531Z,61.30
2023-08-23T07:10:07.942Z,61.20
2023-08-23T07:13:03.604Z,61.10
2023-08-23T07:15:49.016Z,61.00
2023-08-23T07:18:34.628Z,60.90
2023-08-23T07:21:20.066Z,60.50
2023-08-23T07:24:05.992Z,60.40
2023-08-23T07:26:51.588Z,60.10
2023-08-23T07:29:37.446Z,59.80
2023-08-23T07:32:23.241Z,59.50
2023-08-23T07:35:09.608Z,59.40
2023-08-23T07:37:55.217Z,59.20
2023-08-23T07:40:40.930Z,59.00
2023-08-23T07:43:27.739Z,58.90
2023-08-23T07:46:13.255Z,58.60
2023-08-23T07:48:59.477Z,58.70
2023-08-23T07:51:45.358Z,58.60
2023-08-23T07:54:30.761Z,58.70
2023-08-23T07:57:16.290Z,58.30
2023-08-23T08:00:02.108Z,58.20
2023-08-23T08:02:47.827Z,58.20
2023-08-23T08:05:35.057Z,58.10
2023-08-23T08:08:20.812Z,58.00
2023-08-23T08:11:07.041Z,57.60
2023-08-23T08:13:52.591Z,57.60
2023-08-23T08:16:38.399Z,57.40
2023-08-23T08:19:24.294Z,57.60
2023-08-23T08:22:09.822Z,57.40
2023-08-23T08:24:55.570Z,57.20
2023-08-23T08:27:41.800Z,57.20
2023-08-23T08:30:27.585Z,57.30
2023-08-23T08:33:13.101Z,57.30
2023-08-23T08:35:59.100Z,57.20
2023-08-23T08:38:44.746Z,57.00
2023-08-23T08:41:30.323Z,57.00
2023-08-23T08:44:16.412Z,58.00
2023-08-23T08:47:02.300Z,57.30
2023-08-23T08:49:48.321Z,57.00
2023-08-23T08:52:34.135Z,57.10
2023-08-23T08:55:22.956Z,57.20
2023-08-23T08:58:10.299Z,57.00
2023-08-23T09:00:58.202Z,56.70
2023-08-23T09:03:44.619Z,56.70
2023-08-23T09:06:31.473Z,56.90
2023-08-23T09:09:17.186Z,56.70
2023-08-23T09:12:03.184Z,56.60
2023-08-23T09:14:52.199Z,56.70
2023-08-23T09:17:38.553Z,56.40
2023-08-23T09:20:25.242Z,56.40
2023-08-23T09:23:10.742Z,56.60
2023-08-23T09:25:56.851Z,56.80
2023-08-23T09:28:43.356Z,56.30
2023-08-23T09:31:29.392Z,57.00
2023-08-23T09:34:17.357Z,56.90
2023-08-23T09:37:09.954Z,57.10
2023-08-23T09:39:55.938Z,56.60
2023-08-23T09:42:43.253Z,56.90
2023-08-23T09:45:29.867Z,56.00
2023-08-23T09:48:20.114Z,55.60
2023-08-23T09:51:07.210Z,55.80
2023-08-23T09:53:57.604Z,55.70
2023-08-23T09:56:43.374Z,55.20
2023-08-23T09:59:29.273Z,49.20
2023-08-23T10:02:18.406Z,55.90
2023-08-23T10:05:07.040Z,54.40
2023-08-23T10:07:54.862Z,54.80
2023-08-23T10:10:44.279Z,55.60
2023-08-23T10:13:35.815Z,54.90
2023-08-23T10:16:23.735Z,54.60
2023-08-23T10:19:09.986Z,52.80
2023-08-23T10:21:56.464Z,52.10
2023-08-23T10:24:47.351Z,51.90
2023-08-23T10:27:35.450Z,53.30
2023-08-23T10:30:29.111Z,54.00
2023-08-23T10:33:17.805Z,53.10
2023-08-23T10:36:03.491Z,56.70
2023-08-23T10:38:49.251Z,59.60
2023-08-23T10:41:35.838Z,62.00
2023-08-23T10:44:23.081Z,61.50
2023-08-23T10:47:09.168Z,63.20
2023-08-23T10:49:55.826Z,63.40
2023-08-23T10:52:41.903Z,61.10
2023-08-23T10:55:27.883Z,63.60
2023-08-23T10:58:17.998Z,65.60
2023-08-23T11:01:05.080Z,57.50
2023-08-23T11:03:51.152Z,68.50
2023-08-23T11:06:36.983Z,69.80
2023-08-23T11:09:22.785Z,74.70
2023-08-23T11:12:09.686Z,75.70
2023-08-23T11:14:57.666Z,80.00
2023-08-23T11:17:43.118Z,83.00
2023-08-23T11:20:29.382Z,85.60
2023-08-23T11:23:15.016Z,90.10
2023-08-23T11:26:00.589Z,90.70
2023-08-23T11:28:46.232Z,93.60
2023-08-23T11:31:34.803Z,94.10
2023-08-23T11:34:21.795Z,92.00
2023-08-23T11:37:11.801Z,93.50
2023-08-23T11:40:02.749Z,87.40
2023-08-23T11:42:48.941Z,89.30
2023-08-23T11:45:39.441Z,94.50
2023-08-23T11:48:25.276Z,91.80
2023-08-23T11:51:10.750Z,94.00
2023-08-23T11:53:56.704Z,93.20
2023-08-23T11:56:43.217Z,91.30
2023-08-23T11:59:28.811Z,92.20
2023-08-23T12:02:14.341Z,92.30
2023-08-23T12:05:00.224Z,90.40
2023-08-23T12:07:47.573Z,93.30
2023-08-23T12:10:33.705Z,90.90
2023-08-23T12:13:19.395Z,89.00
2023-08-23T12:16:07.366Z,81.30
2023-08-23T12:18:52.888Z,76.40
2023-08-23T12:21:38.533Z,69.60
2023-08-23T12:24:24.170Z,69.10
2023-08-23T12:27:10.632Z,65.40
2023-08-23T12:29:56.565Z,64.70
2023-08-23T12:33:08.123Z,60.40
2023-08-23T12:35:54.094Z,60.30
2023-08-23T12:38:39.451Z,59.60
2023-08-23T12:41:25.109Z,59.60
2023-08-23T12:44:10.525Z,58.30
2023-08-23T12:46:56.032Z,58.60
2023-08-23T12:49:41.835Z,59.20
2023-08-23T12:52:27.741Z,60.20
2023-08-23T12:55:16.534Z,59.80
2023-08-23T12:58:02.010Z,59.80
2023-08-23T13:00:47.964Z,60.60
2023-08-23T13:03:34.022Z,61.10
2023-08-23T13:06:20.797Z,58.80
2023-08-23T13:09:07.162Z,59.80
2023-08-23T13:11:52.809Z,62.30
2023-08-23T13:14:38.456Z,63.30
2023-08-23T13:17:24.590Z,62.60
2023-08-23T13:20:11.393Z,62.40
2023-08-23T13:22:57.933Z,62.70
2023-08-23T13:25:43.650Z,62.20
2023-08-23T13:28:29.345Z,62.20
2023-08-23T13:31:16.384Z,61.10
2023-08-23T13:34:03.569Z,58.90
2023-08-23T13:36:49.526Z,60.10
2023-08-23T13:39:36.509Z,59.70
2023-08-23T13:42:22.640Z,59.00
2023-08-23T13:45:11.176Z,57.70
2023-08-23T13:47:57.548Z,56.80
2023-08-23T13:50:43.454Z,56.80
2023-08-23T13:53:29.592Z,56.80
2023-08-23T13:56:16.413Z,56.60
2023-08-23T13:59:02.661Z,56.20
2023-08-23T14:01:48.194Z,55.80
2023-08-23T14:04:34.198Z,56.00
2023-08-23T14:07:20.203Z,55.50
2023-08-23T14:10:06.709Z,55.10
2023-08-23T14:12:52.712Z,54.70
2023-08-23T14:15:38.322Z,54.30
2023-08-23T14:18:24.360Z,54.60
2023-08-23T14:21:10.353Z,54.50
2023-08-23T14:23:55.740Z,54.10
2023-08-23T14:26:41.488Z,54.20
2023-08-23T14:29:26.962Z,54.30
2023-08-23T14:32:13.061Z,54.10
2023-08-23T14:34:58.836Z,53.90
2023-08-23T14:37:46.911Z,53.40
2023-08-23T14:40:33.009Z,53.70
2023-08-23T14:43:18.503Z,53.50
2023-08-23T14:46:04.310Z,53.30
2023-08-23T14:48:50.146Z,53.00
2023-08-23T14:51:35.605Z,52.90
2023-08-23T14:54:21.053Z,52.80
2023-08-23T14:57:06.794Z,53.30
2023-08-23T14:59:52.251Z,52.60
2023-08-23T15:02:37.971Z,52.30
2023-08-23T15:05:23.855Z,52.20
2023-08-23T15:08:11.679Z,52.20
2023-08-23T15:10:58.770Z,52.40
2023-08-23T15:13:44.645Z,52.90
2023-08-23T15:16:30.260Z,52.30
2023-08-23T15:19:21.698Z,52.20
2023-08-23T15:22:13.042Z,52.20
2023-08-23T15:24:59.142Z,52.50
2023-08-23T15:27:44.678Z,52.50
2023-08-23T15:30:34.982Z,52.70
2023-08-23T15:33:22.029Z,52.70
2023-08-23T15:36:08.194Z,52.70
2023-08-23T15:38:53.975Z,53.00
2023-08-23T15:41:43.648Z,53.00
2023-08-23T15:44:29.378Z,53.00
2023-08-23T15:47:15.360Z,53.00
2023-08-23T15:50:01.425Z,53.10
2023-08-23T15:52:47.551Z,53.00
2023-08-23T15:55:33.541Z,53.00
2023-08-23T15:58:19.193Z,53.00
2023-08-23T16:01:06.894Z,53.00
2023-08-23T16:03:56.761Z,53.00
2023-08-23T16:06:42.273Z,52.90
2023-08-23T16:09:28.201Z,53.00
2023-08-23T16:12:13.913Z,52.90
2023-08-23T16:14:59.660Z,53.00
2023-08-23T16:17:45.182Z,53.00
2023-08-23T16:20:34.202Z,52.90
2023-08-23T16:23:22.320Z,53.00
2023-08-23T16:26:10.977Z,53.00
2023-08-23T16:28:59.045Z,53.20
2023-08-23T16:31:44.810Z,53.20
2023-08-23T16:34:30.909Z,53.30
2023-08-23T16:37:16.415Z,53.50
2023-08-23T16:40:02.513Z,53.60
2023-08-23T16:42:48.641Z,53.70
2023-08-23T16:45:34.800Z,53.70
2023-08-23T16:48:20.845Z,53.70
2023-08-23T16:51:09.220Z,53.80
2023-08-23T16:53:57.573Z,53.80
2023-08-23T16:56:43.985Z,53.80
2023-08-23T16:59:30.078Z,53.90
2023-08-23T17:02:15.655Z,53.90
2023-08-23T17:05:04.000Z,54.10
2023-08-23T17:07:50.269Z,54.70
2023-08-23T17:10:36.358Z,54.00
2023-08-23T17:13:22.164Z,54.20
2023-08-23T17:16:08.310Z,54.30
2023-08-23T17:18:54.176Z,54.30
2023-08-23T17:21:39.719Z,54.30
2023-08-23T17:24:25.263Z,54.50
2023-08-23T17:27:10.707Z,54.60
2023-08-23T17:29:58.727Z,54.80
2023-08-23T17:32:44.538Z,54.80
2023-08-23T17:35:30.528Z,54.80
2023-08-23T17:38:16.277Z,55.00
2023-08-23T17:41:06.460Z,55.10
2023-08-23T17:43:52.033Z,55.00
2023-08-23T17:46:42.788Z,55.00
2023-08-23T17:49:28.993Z,55.10
2023-08-23T17:52:14.850Z,59.40
2023-08-23T17:55:00.593Z,55.30
2023-08-23T17:57:46.535Z,55.20
2023-08-23T18:00:33.950Z,55.00
2023-08-23T18:03:19.668Z,55.20
2023-08-23T18:06:05.839Z,55.10
2023-08-23T18:08:51.735Z,55.10
2023-08-23T18:11:37.453Z,55.00
2023-08-23T18:14:23.240Z,55.00
2023-08-23T18:17:08.902Z,55.10
2023-08-23T18:19:54.552Z,55.00
2023-08-23T18:22:40.042Z,55.10
2023-08-23T18:25:25.777Z,55.20
2023-08-23T18:28:11.456Z,55.30
2023-08-23T18:30:57.437Z,55.50
2023-08-23T18:33:45.688Z,55.40
2023-08-23T18:36:31.694Z,55.50
2023-08-23T18:39:20.384Z,55.50
2023-08-23T18:42:08.262Z,55.50
2023-08-23T18:44:58.809Z,55.40
2023-08-23T18:47:52.181Z,55.70
2023-08-23T18:50:37.993Z,55.90
2023-08-23T18:53:23.893Z,56.00
2023-08-23T18:56:10.081Z,56.40
2023-08-23T18:58:55.733Z,56.60
2023-08-23T19:01:41.513Z,56.70
2023-08-23T19:04:28.123Z,56.90
2023-08-23T19:07:13.628Z,57.10
2023-08-23T19:10:00.164Z,57.60
2023-08-23T19:12:45.998Z,57.20
2023-08-23T19:15:31.774Z,57.50
2023-08-23T19:18:19.771Z,57.20
2023-08-23T19:21:05.508Z,57.80
2023-08-23T19:23:51.288Z,57.30
2023-08-23T19:26:37.864Z,57.70
2023-08-23T19:29:23.399Z,57.50
2023-08-23T19:32:11.766Z,57.80
2023-08-23T19:34:57.878Z,57.60
2023-08-23T19:37:46.251Z,57.60
2023-08-23T19:40:31.818Z,57.60
2023-08-23T19:43:18.016Z,57.70
2023-08-23T19:46:03.654Z,57.80
2023-08-23T19:48:49.499Z,58.20
2023-08-23T19:51:35.640Z,58.50
2023-08-23T19:54:21.624Z,58.10
2023-08-23T19:57:10.837Z,58.10
2023-08-23T19:59:59.828Z,57.90
2023-08-23T20:02:45.660Z,58.30
2023-08-23T20:05:31.586Z,59.00
2023-08-23T20:08:17.225Z,59.10
2023-08-23T20:11:03.989Z,59.30
2023-08-23T20:13:49.908Z,59.30
2023-08-23T20:16:36.253Z,59.60
2023-08-23T20:19:22.002Z,59.00
2023-08-23T20:22:07.669Z,59.10
2023-08-23T20:24:56.689Z,59.50
2023-08-23T20:27:42.605Z,59.80
2023-08-23T20:30:28.318Z,59.80
2023-08-23T20:33:14.518Z,59.70
2023-08-23T20:35:59.823Z,59.70
2023-08-23T20:38:45.513Z,59.90
2023-08-23T20:41:31.152Z,59.70
2023-08-23T20:44:17.270Z,60.60
2023-08-23T20:47:03.494Z,60.80
2023-08-23T20:49:49.201Z,60.30
2023-08-23T20:52:35.293Z,60.60
2023-08-23T20:55:20.602Z,60.60
2023-08-23T20:58:06.089Z,60.20
2023-08-23T21:01:08.763Z,61.10
2023-08-23T21:03:55.470Z,60.30
2023-08-23T21:06:41.562Z,61.50
2023-08-23T21:09:31.484Z,61.30
2023-08-23T21:12:17.435Z,61.00
2023-08-23T21:15:03.251Z,61.40
2023-08-23T21:17:49.121Z,61.70
2023-08-23T21:20:35.266Z,61.80
2023-08-23T21:23:21.264Z,62.50
2023-08-23T21:26:09.818Z,61.70
2023-08-23T21:28:55.697Z,62.00
2023-08-23T21:31:41.694Z,61.80
2023-08-23T21:34:27.685Z,61.70
2023-08-23T21:37:13.669Z,62.90
2023-08-23T21:39:59.565Z,63.00
2023-08-23T21:42:45.044Z,62.60
2023-08-23T21:45:31.193Z,62.70
2023-08-23T21:48:17.160Z,62.80
2023-08-23T21:51:06.090Z,63.00
2023-08-23T21:53:51.671Z,62.60
2023-08-23T21:56:37.254Z,62.60
2023-08-23T21:59:22.792Z,63.00
2023-08-23T22:02:12.228Z,63.20
2023-08-23T22:04:57.943Z,63.40
2023-08-23T22:07:43.544Z,63.30
2023-08-23T22:10:29.236Z,63.60
2023-08-23T22:13:15.181Z,62.90
2023-08-23T22:16:00.968Z,62.70
2023-08-23T22:18:48.568Z,64.10
2023-08-23T22:21:34.191Z,63.40
2023-08-23T22:24:20.137Z,63.10
2023-08-23T22:27:05.910Z,62.90
2023-08-23T22:29:51.690Z,62.90
2023-08-23T22:32:37.146Z,63.90
2023-08-23T22:35:23.043Z,64.50
2023-08-23T22:38:09.185Z,63.80
2023-08-23T22:40:58.363Z,63.00
2023-08-23T22:43:47.716Z,62.50
2023-08-23T22:46:36.495Z,62.60
2023-08-23T22:49:22.121Z,63.60
2023-08-23T22:52:08.069Z,63.10
2023-08-23T22:54:53.891Z,63.40
2023-08-23T22:57:41.925Z,63.00
2023-08-23T23:00:27.895Z,63.30
2023-08-23T23:03:13.804Z,63.20
2023-08-23T23:05:59.555Z,64.20
2023-08-23T23:08:45.221Z,64.70
2023-08-23T23:11:31.088Z,64.40
2023-08-23T23:14:19.683Z,64.20
2023-08-23T23:17:05.624Z,64.10
2023-08-23T23:19:51.909Z,64.40
2023-08-23T23:22:37.577Z,64.20
2023-08-23T23:25:23.280Z,65.10
2023-08-23T23:28:08.887Z,65.20
2023-08-23T23:30:54.326Z,65.80
2023-08-23T23:33:39.799Z,66.10
2023-08-23T23:36:31.279Z,65.70
2023-08-23T23:39:17.297Z,65.70
2023-08-23T23:42:02.777Z,65.40
2023-08-23T23:44:48.598Z,65.10
2023-08-23T23:47:34.439Z,64.70
2023-08-23T23:50:20.662Z,65.00
2023-08-23T23:53:06.474Z,64.70
2023-08-23T23:55:52.363Z,64.60
2023-08-23T23:58:37.976Z,65.70
